createdAt,value
2017-11-30T00:01:10.222Z,104.07
2017-11-30T00:03:36.542Z,112.90
2017-11-30T00:06:02.809Z,99.97
2017-11-30T00:08:29.833Z,129.10
2017-11-30T00:10:56.097Z,112.85
2017-11-30T00:13:23.104Z,130.93
2017-11-30T00:15:49.399Z,108.80
2017-11-30T00:18:15.731Z,117.57
2017-11-30T00:20:42.030Z,132.23
2017-11-30T00:23:08.292Z,123.30
2017-11-30T00:25:34.615Z,120.60
2017-11-30T00:28:00.932Z,130.55
2017-11-30T00:30:27.246Z,133.68
2017-11-30T00:32:54.322Z,108.22
2017-11-30T00:35:20.625Z,116.60
2017-11-30T00:37:47.630Z,118.43
2017-11-30T00:40:13.910Z,94.28
2017-11-30T00:42:53.202Z,113.15
2017-11-30T00:45:19.499Z,111.62
2017-11-30T00:47:45.803Z,115.18
2017-11-30T00:50:12.827Z,90.32
2017-11-30T00:52:39.127Z,111.68
2017-11-30T00:55:05.408Z,101.03
2017-11-30T00:57:32.442Z,103.43
2017-11-30T00:59:58.780Z,100.72
2017-11-30T01:02:25.801Z,116.40
2017-11-30T01:04:52.083Z,93.93
2017-11-30T01:07:18.369Z,98.93
2017-11-30T01:09:44.692Z,101.95
2017-11-30T01:12:10.958Z,107.00
2017-11-30T01:14:38.012Z,99.35
2017-11-30T01:17:04.309Z,99.13
2017-11-30T01:19:30.591Z,62.88
2017-11-30T01:21:56.894Z,78.40
2017-11-30T01:24:23.893Z,108.97
2017-11-30T01:26:50.137Z,94.18
2017-11-30T01:29:16.423Z,99.90
2017-11-30T01:31:42.672Z,118.57
2017-11-30T01:34:08.963Z,99.05
2017-11-30T01:36:35.205Z,98.87
2017-11-30T01:39:01.495Z,84.75
2017-11-30T01:41:27.758Z,106.53
2017-11-30T01:43:54.032Z,105.78
2017-11-30T01:46:20.305Z,115.37
2017-11-30T01:48:47.325Z,65.82
2017-11-30T01:51:13.585Z,115.30
2017-11-30T01:53:40.616Z,97.90
2017-11-30T01:56:07.654Z,117.18
2017-11-30T01:58:33.996Z,105.30
2017-11-30T02:01:01.047Z,118.47
2017-11-30T02:03:28.050Z,114.80
2017-11-30T02:05:54.315Z,87.18
2017-11-30T02:08:21.338Z,115.20
2017-11-30T02:10:47.624Z,76.82
2017-11-30T02:13:13.911Z,99.50
2017-11-30T02:15:40.153Z,112.47
2017-11-30T02:18:07.161Z,73.85
2017-11-30T02:20:33.460Z,114.65
2017-11-30T02:22:59.762Z,115.93
2017-11-30T02:25:26.794Z,123.70
2017-11-30T02:27:53.097Z,106.47
2017-11-30T02:30:19.390Z,119.85
2017-11-30T02:32:45.702Z,109.75
2017-11-30T02:35:12.730Z,112.28
2017-11-30T02:37:39.031Z,93.12
2017-11-30T02:40:05.325Z,115.70
2017-11-30T02:42:31.639Z,109.25
2017-11-30T02:44:58.675Z,113.10
2017-11-30T02:47:24.988Z,109.30
2017-11-30T02:49:51.286Z,106.05
2017-11-30T02:52:17.583Z,101.95
2017-11-30T02:54:44.604Z,114.88
2017-11-30T02:57:10.964Z,132.63
2017-11-30T02:59:37.992Z,116.20
2017-11-30T03:02:04.325Z,119.10
2017-11-30T03:04:30.594Z,117.05
2017-11-30T03:06:56.914Z,108.53
2017-11-30T03:09:23.204Z,114.97
2017-11-30T03:11:49.502Z,52.08
2017-11-30T03:14:15.762Z,114.00
2017-11-30T03:16:42.066Z,109.35
2017-11-30T03:19:08.358Z,108.90
2017-11-30T03:21:34.648Z,104.25
2017-11-30T03:24:00.924Z,92.62
2017-11-30T03:26:27.230Z,116.53
2017-11-30T03:28:54.266Z,118.87
2017-11-30T03:31:20.539Z,111.15
2017-11-30T03:33:46.844Z,140.32
2017-11-30T03:36:13.835Z,123.65
2017-11-30T03:38:40.108Z,109.60
2017-11-30T03:41:06.388Z,137.35
2017-11-30T03:43:32.681Z,143.85
2017-11-30T03:45:59.701Z,143.60
2017-11-30T03:48:26.009Z,123.25
2017-11-30T03:50:52.272Z,152.27
2017-11-30T03:53:18.591Z,141.88
2017-11-30T03:55:44.899Z,149.48
2017-11-30T03:58:11.415Z,120.75
2017-11-30T04:00:37.709Z,140.95
2017-11-30T04:03:04.709Z,153.10
2017-11-30T04:05:30.979Z,137.73
2017-11-30T04:07:58.004Z,132.77
2017-11-30T04:10:24.272Z,116.05
2017-11-30T04:12:51.302Z,115.75
2017-11-30T04:15:18.382Z,109.70
2017-11-30T04:17:44.621Z,119.93
2017-11-30T04:20:10.900Z,121.30
2017-11-30T04:22:37.741Z,138.70
2017-11-30T04:25:04.005Z,128.35
2017-11-30T04:27:30.308Z,125.30
2017-11-30T04:29:56.570Z,117.82
2017-11-30T04:32:22.851Z,129.07
2017-11-30T04:34:49.127Z,130.35
2017-11-30T04:37:15.371Z,107.10
2017-11-30T04:39:41.648Z,132.98
2017-11-30T04:42:07.902Z,119.47
2017-11-30T04:44:34.917Z,115.18
2017-11-30T04:47:01.173Z,117.55
2017-11-30T04:49:28.218Z,120.68
2017-11-30T04:51:55.499Z,96.55
2017-11-30T04:54:21.819Z,94.97
2017-11-30T04:56:48.101Z,95.55
2017-11-30T04:59:14.405Z,96.97
2017-11-30T05:01:40.680Z,104.20
2017-11-30T05:04:06.970Z,97.35
2017-11-30T05:06:33.264Z,92.28
2017-11-30T05:08:59.548Z,91.80
2017-11-30T05:11:25.856Z,86.47
2017-11-30T05:13:52.147Z,94.00
2017-11-30T05:16:19.195Z,85.38
2017-11-30T05:18:45.481Z,82.10
2017-11-30T05:21:11.798Z,91.97
2017-11-30T05:23:38.084Z,85.15
2017-11-30T05:26:05.090Z,85.73
2017-11-30T05:28:31.413Z,73.95
2017-11-30T05:30:57.688Z,85.47
2017-11-30T05:33:24.737Z,78.40
2017-11-30T05:35:51.776Z,76.75
2017-11-30T05:38:18.789Z,81.72
2017-11-30T05:40:45.068Z,75.77
2017-11-30T05:43:11.354Z,67.68
2017-11-30T05:45:37.629Z,66.12
2017-11-30T05:48:03.910Z,73.47
2017-11-30T05:50:30.169Z,69.00
2017-11-30T05:52:56.411Z,73.32
2017-11-30T05:55:22.701Z,62.72
2017-11-30T05:57:48.958Z,68.35
2017-11-30T06:00:15.971Z,63.72
2017-11-30T06:02:42.961Z,67.00
2017-11-30T06:05:09.982Z,64.57
2017-11-30T06:07:36.245Z,71.03
2017-11-30T06:10:02.527Z,60.63
2017-11-30T06:12:28.786Z,68.73
2017-11-30T06:14:55.808Z,60.35
2017-11-30T06:17:22.087Z,69.70
2017-11-30T06:19:48.380Z,65.20
2017-11-30T06:22:15.381Z,65.10
2017-11-30T06:24:41.701Z,55.72
2017-11-30T06:27:07.984Z,54.85
2017-11-30T06:29:34.258Z,75.23
2017-11-30T06:32:00.539Z,61.67
2017-11-30T06:34:26.805Z,62.42
2017-11-30T06:36:53.048Z,56.72
2017-11-30T06:39:19.349Z,60.67
2017-11-30T06:41:45.644Z,60.00
2017-11-30T06:44:11.958Z,58.47
2017-11-30T06:46:38.251Z,60.28
2017-11-30T06:49:04.566Z,58.97
2017-11-30T06:51:31.614Z,58.55
2017-11-30T06:53:58.619Z,64.80
2017-11-30T06:56:24.952Z,60.12
2017-11-30T06:58:51.233Z,62.85
2017-11-30T07:01:18.237Z,66.30
2017-11-30T07:03:44.556Z,82.30
2017-11-30T07:06:10.825Z,71.85
2017-11-30T07:08:38.268Z,66.12
2017-11-30T07:11:04.552Z,59.33
2017-11-30T07:13:30.834Z,66.60
2017-11-30T07:15:57.102Z,63.58
2017-11-30T07:18:23.406Z,70.80
2017-11-30T07:20:50.397Z,65.22
2017-11-30T07:23:16.673Z,65.78
2017-11-30T07:25:43.670Z,67.07
2017-11-30T07:28:09.950Z,62.30
2017-11-30T07:30:36.984Z,60.55
2017-11-30T07:33:03.288Z,67.28
2017-11-30T07:35:29.576Z,61.75
2017-11-30T07:37:55.870Z,67.32
2017-11-30T07:40:22.365Z,67.90
2017-11-30T07:42:48.669Z,72.37
2017-11-30T07:45:14.935Z,69.25
2017-11-30T07:47:41.206Z,69.95
2017-11-30T07:50:08.232Z,61.88
2017-11-30T07:52:34.500Z,65.12
2017-11-30T07:55:01.536Z,59.47
2017-11-30T07:57:28.555Z,64.47
2017-11-30T07:59:54.833Z,63.30
2017-11-30T08:02:21.087Z,61.60
2017-11-30T08:04:47.382Z,66.50
2017-11-30T08:07:13.645Z,76.12
2017-11-30T08:09:39.927Z,72.40
2017-11-30T08:12:07.023Z,60.22
2017-11-30T08:14:33.306Z,55.50
2017-11-30T08:17:00.323Z,65.68
2017-11-30T08:19:26.599Z,64.03
2017-11-30T08:21:53.667Z,62.70
2017-11-30T08:24:19.968Z,64.55
2017-11-30T08:26:46.218Z,61.90
2017-11-30T08:29:12.499Z,62.35
2017-11-30T08:31:38.765Z,69.07
2017-11-30T08:34:05.827Z,60.35
2017-11-30T08:36:32.152Z,73.22
2017-11-30T08:38:58.445Z,62.67
2017-11-30T08:41:24.700Z,58.90
2017-11-30T08:43:51.110Z,63.63
2017-11-30T08:46:17.383Z,54.47
2017-11-30T08:48:43.703Z,54.75
2017-11-30T08:51:10.000Z,62.03
2017-11-30T08:53:36.320Z,51.35
2017-11-30T08:56:02.622Z,59.22
2017-11-30T08:58:28.923Z,58.77
2017-11-30T09:00:55.929Z,64.53
2017-11-30T09:03:22.218Z,63.43
2017-11-30T09:05:48.502Z,52.47
2017-11-30T09:08:14.811Z,57.87
2017-11-30T09:10:41.085Z,50.53
2017-11-30T09:13:08.124Z,54.00
2017-11-30T09:15:35.186Z,52.63
2017-11-30T09:18:01.506Z,55.87
2017-11-30T09:20:28.502Z,64.07
2017-11-30T09:22:54.827Z,54.72
2017-11-30T09:25:21.069Z,64.73
2017-11-30T09:27:47.358Z,66.73
2017-11-30T09:30:13.638Z,57.50
2017-11-30T09:32:39.873Z,57.73
2017-11-30T09:35:06.141Z,73.93
2017-11-30T09:37:32.435Z,55.13
2017-11-30T09:39:58.698Z,54.33
2017-11-30T09:42:24.971Z,51.20
2017-11-30T09:44:51.240Z,57.60
2017-11-30T09:47:18.267Z,49.47
2017-11-30T09:49:44.550Z,56.10
2017-11-30T09:52:10.848Z,55.38
2017-11-30T09:54:37.908Z,54.83
2017-11-30T09:57:04.229Z,54.73
2017-11-30T09:59:31.263Z,52.57
2017-11-30T10:01:57.558Z,62.77
2017-11-30T10:04:23.883Z,60.83
2017-11-30T10:06:50.193Z,63.47
2017-11-30T10:09:16.461Z,57.85
2017-11-30T10:11:42.744Z,56.37
2017-11-30T10:14:09.004Z,53.67
2017-11-30T10:16:35.294Z,54.47
2017-11-30T10:19:01.568Z,58.30
2017-11-30T10:21:27.852Z,59.53
2017-11-30T10:23:54.849Z,57.90
2017-11-30T10:26:21.110Z,53.97
2017-11-30T10:28:47.373Z,58.13
2017-11-30T10:31:13.646Z,66.47
2017-11-30T10:33:39.906Z,57.57
2017-11-30T10:36:06.927Z,58.57
2017-11-30T10:38:33.228Z,65.30
2017-11-30T10:40:59.508Z,61.17
2017-11-30T10:43:26.482Z,52.60
2017-11-30T10:45:52.753Z,61.10
2017-11-30T10:48:18.997Z,50.47
2017-11-30T10:50:45.263Z,46.50
2017-11-30T10:53:11.520Z,50.13
2017-11-30T10:55:37.802Z,50.20
2017-11-30T10:58:04.065Z,48.07
2017-11-30T11:00:30.332Z,40.87
2017-11-30T11:02:56.601Z,46.30
2017-11-30T11:05:23.622Z,40.50
2017-11-30T11:07:49.867Z,41.27
2017-11-30T11:10:16.845Z,43.63
2017-11-30T11:12:43.112Z,41.53
2017-11-30T11:15:09.379Z,45.37
2017-11-30T11:17:36.386Z,33.43
2017-11-30T11:20:02.675Z,40.30
2017-11-30T11:22:28.951Z,39.47
2017-11-30T11:24:55.239Z,40.87
2017-11-30T11:27:21.503Z,37.23
2017-11-30T11:29:47.786Z,43.07
2017-11-30T11:32:14.075Z,44.70
2017-11-30T11:34:40.330Z,38.30
2017-11-30T11:37:07.327Z,44.50
2017-11-30T11:39:33.598Z,40.33
2017-11-30T11:42:00.617Z,34.87
2017-11-30T11:44:26.882Z,33.13
2017-11-30T11:46:53.882Z,38.83
2017-11-30T11:49:20.151Z,36.67
2017-11-30T11:51:47.160Z,29.67
2017-11-30T11:54:13.484Z,35.07
2017-11-30T11:56:39.724Z,30.57
2017-11-30T11:59:05.990Z,39.60
2017-11-30T12:01:32.264Z,34.70
2017-11-30T12:03:58.524Z,33.53
2017-11-30T12:06:24.818Z,34.70
2017-11-30T12:08:51.107Z,32.70
2017-11-30T12:11:18.094Z,31.97
2017-11-30T12:13:44.373Z,32.27
2017-11-30T12:16:10.632Z,30.60
2017-11-30T12:18:36.912Z,31.60
2017-11-30T12:21:03.164Z,36.50
2017-11-30T12:23:29.455Z,29.60
2017-11-30T12:25:55.685Z,29.00
2017-11-30T12:28:21.921Z,28.53
2017-11-30T12:30:48.198Z,31.27
2017-11-30T12:33:15.229Z,32.10
2017-11-30T12:35:41.521Z,34.90
2017-11-30T12:38:07.810Z,31.00
2017-11-30T12:40:34.114Z,27.53
2017-11-30T12:43:00.398Z,27.20
2017-11-30T12:45:26.633Z,24.10
2017-11-30T12:47:52.911Z,23.30
2017-11-30T12:50:19.898Z,28.60
2017-11-30T12:52:46.205Z,22.27
2017-11-30T12:55:12.519Z,26.50
2017-11-30T12:57:39.569Z,24.30
2017-11-30T13:00:06.586Z,21.03
2017-11-30T13:02:32.909Z,26.70
2017-11-30T13:04:59.182Z,23.63
2017-11-30T13:07:26.202Z,23.70
2017-11-30T13:09:52.471Z,21.93
2017-11-30T13:12:18.750Z,25.50
2017-11-30T13:14:45.020Z,17.80
2017-11-30T13:17:12.058Z,18.97
2017-11-30T13:19:38.369Z,22.10
2017-11-30T13:22:04.653Z,21.33
2017-11-30T13:24:30.959Z,22.17
2017-11-30T13:26:57.243Z,20.03
2017-11-30T13:29:23.497Z,26.13
2017-11-30T13:31:49.797Z,17.80
2017-11-30T13:34:16.058Z,18.80
2017-11-30T13:36:43.085Z,18.67
2017-11-30T13:39:09.365Z,19.80
2017-11-30T13:41:35.605Z,19.67
2017-11-30T13:44:01.885Z,24.90
2017-11-30T13:46:28.884Z,20.83
2017-11-30T13:48:55.156Z,20.53
2017-11-30T13:51:21.407Z,21.87
2017-11-30T13:53:48.438Z,21.87
2017-11-30T13:56:14.726Z,24.80
2017-11-30T13:58:41.000Z,23.80
2017-11-30T14:01:07.259Z,20.50
2017-11-30T14:03:33.527Z,20.80
2017-11-30T14:05:59.808Z,19.00
2017-11-30T14:08:26.812Z,23.10
2017-11-30T14:10:53.088Z,22.60
2017-11-30T14:13:19.372Z,19.53
2017-11-30T14:15:45.633Z,20.70
2017-11-30T14:18:12.643Z,20.27
2017-11-30T14:20:38.901Z,21.00
2017-11-30T14:23:05.970Z,22.53
2017-11-30T14:25:32.214Z,20.50
2017-11-30T14:27:58.522Z,22.13
2017-11-30T14:30:25.533Z,20.77
2017-11-30T14:32:51.789Z,21.53
2017-11-30T14:35:18.784Z,25.00
2017-11-30T14:37:45.048Z,21.53
2017-11-30T14:40:11.308Z,25.27
2017-11-30T14:42:37.556Z,20.50
2017-11-30T14:45:03.816Z,24.10
2017-11-30T14:47:30.093Z,24.23
2017-11-30T14:49:56.340Z,18.60
2017-11-30T14:52:22.608Z,18.93
2017-11-30T14:54:48.909Z,23.13
2017-11-30T14:57:15.238Z,19.20
2017-11-30T14:59:41.439Z,19.90
2017-11-30T15:02:07.720Z,19.77
2017-11-30T15:04:33.979Z,21.83
2017-11-30T15:07:00.991Z,21.33
2017-11-30T15:09:27.248Z,19.43
2017-11-30T15:11:54.372Z,22.73
2017-11-30T15:14:20.623Z,22.03
2017-11-30T15:16:46.898Z,23.63
2017-11-30T15:19:13.131Z,23.70
2017-11-30T15:21:39.386Z,17.77
2017-11-30T15:24:05.639Z,18.07
2017-11-30T15:26:31.901Z,27.47
2017-11-30T15:28:58.131Z,20.13
2017-11-30T15:31:24.409Z,20.97
2017-11-30T15:33:50.677Z,28.83
2017-11-30T15:36:17.686Z,23.87
2017-11-30T15:38:44.109Z,21.97
2017-11-30T15:41:10.336Z,21.67
2017-11-30T15:43:36.596Z,18.83
2017-11-30T15:46:02.847Z,20.33
2017-11-30T15:48:29.858Z,17.90
2017-11-30T15:50:56.135Z,19.87
2017-11-30T15:56:03.958Z,24.67
2017-11-30T15:58:30.197Z,27.43
2017-11-30T16:00:56.458Z,23.53
2017-11-30T16:03:22.723Z,26.20
2017-11-30T16:05:49.705Z,23.73
2017-11-30T16:08:16.048Z,21.90
2017-11-30T16:10:42.274Z,24.60
2017-11-30T16:13:08.566Z,25.30
2017-11-30T16:15:34.820Z,22.63
2017-11-30T16:18:01.077Z,23.43
2017-11-30T16:20:27.334Z,18.83
2017-11-30T16:22:53.603Z,25.97
2017-11-30T16:25:19.869Z,22.43
2017-11-30T16:27:46.172Z,22.60
2017-11-30T16:30:12.453Z,23.40
2017-11-30T16:32:39.463Z,23.57
2017-11-30T16:35:05.749Z,22.27
2017-11-30T16:38:24.238Z,26.30
2017-11-30T16:40:50.496Z,28.33
2017-11-30T16:43:16.808Z,26.30
2017-11-30T16:45:43.093Z,30.97
2017-11-30T16:48:09.348Z,24.17
2017-11-30T16:50:35.597Z,29.00
2017-11-30T16:53:01.878Z,26.47
2017-11-30T16:55:28.139Z,36.23
2017-11-30T16:57:54.407Z,28.97
2017-11-30T17:00:21.408Z,30.23
2017-11-30T17:02:47.685Z,30.27
2017-11-30T17:05:14.669Z,28.70
2017-11-30T17:07:40.937Z,29.00
2017-11-30T17:10:07.193Z,25.13
2017-11-30T17:12:34.219Z,28.47
2017-11-30T17:15:00.489Z,26.50
2017-11-30T17:17:26.740Z,28.07
2017-11-30T17:19:53.000Z,32.80
2017-11-30T17:22:19.284Z,34.97
2017-11-30T17:24:45.554Z,23.90
2017-11-30T17:27:12.647Z,23.37
2017-11-30T17:29:39.628Z,24.73
2017-11-30T17:32:06.643Z,25.57
2017-11-30T17:34:33.232Z,25.70
2017-11-30T17:36:59.511Z,31.50
2017-11-30T17:39:25.786Z,29.67
2017-11-30T17:41:52.063Z,30.40
2017-11-30T17:44:19.107Z,27.27
2017-11-30T17:46:46.149Z,28.13
2017-11-30T17:49:13.146Z,26.93
2017-11-30T17:51:39.515Z,26.20
2017-11-30T17:54:05.770Z,22.43
2017-11-30T17:56:32.052Z,23.50
2017-11-30T17:58:58.301Z,26.33
2017-11-30T18:01:24.554Z,32.07
2017-11-30T18:03:50.808Z,28.40
2017-11-30T18:06:17.069Z,26.47
2017-11-30T18:08:43.312Z,26.40
2017-11-30T18:11:09.561Z,26.03
2017-11-30T18:13:36.563Z,28.37
2017-11-30T18:16:02.807Z,24.30
2017-11-30T18:18:29.049Z,29.80
2017-11-30T18:20:55.303Z,24.13
2017-11-30T18:23:21.554Z,26.83
2017-11-30T18:25:47.829Z,28.73
2017-11-30T18:28:14.076Z,29.20
2017-11-30T18:30:41.080Z,26.10
2017-11-30T18:33:07.323Z,31.03
2017-11-30T18:35:33.588Z,26.90
2017-11-30T18:38:00.605Z,28.97
2017-11-30T18:40:26.967Z,27.03
2017-11-30T18:42:53.947Z,30.10
2017-11-30T18:45:20.234Z,26.30
2017-11-30T18:47:47.228Z,25.83
2017-11-30T18:50:13.491Z,27.53
2017-11-30T18:52:39.761Z,29.37
2017-11-30T18:55:06.047Z,25.50
2017-11-30T18:57:32.292Z,25.13
2017-11-30T18:59:58.565Z,24.80
2017-11-30T19:02:24.816Z,24.90
2017-11-30T19:04:51.069Z,24.77
2017-11-30T19:07:17.324Z,25.80
2017-11-30T19:09:43.578Z,28.53
2017-11-30T19:12:09.830Z,27.90
2017-11-30T19:14:36.081Z,31.53
2017-11-30T19:17:02.346Z,24.00
2017-11-30T19:19:28.595Z,26.70
2017-11-30T19:21:54.859Z,25.27
2017-11-30T19:24:21.111Z,26.33
2017-11-30T19:26:48.097Z,30.20
2017-11-30T19:29:14.351Z,27.53
2017-11-30T19:31:40.596Z,25.30
2017-11-30T19:34:06.869Z,26.40
2017-11-30T19:36:33.104Z,26.73
2017-11-30T19:38:59.351Z,25.40
2017-11-30T19:41:25.579Z,28.47
2017-11-30T19:43:51.856Z,30.60
2017-11-30T19:46:18.857Z,30.73
2017-11-30T19:48:45.112Z,28.00
2017-11-30T19:51:11.376Z,25.77
2017-11-30T19:53:37.665Z,23.57
2017-11-30T19:56:03.944Z,26.20
2017-11-30T19:58:30.311Z,25.70
2017-11-30T20:00:56.594Z,32.23
2017-11-30T20:03:22.873Z,26.77
2017-11-30T20:05:49.137Z,28.40
2017-11-30T20:08:16.154Z,26.73
2017-11-30T20:10:42.406Z,26.20
2017-11-30T20:13:08.696Z,26.93
2017-11-30T20:15:34.944Z,25.97
2017-11-30T20:18:01.229Z,30.00
2017-11-30T20:20:27.485Z,30.40
2017-11-30T20:22:53.735Z,26.27
2017-11-30T20:25:20.006Z,25.07
2017-11-30T20:27:46.271Z,29.90
2017-11-30T20:30:12.530Z,27.03
2017-11-30T20:32:38.807Z,26.63
2017-11-30T20:35:05.054Z,31.77
2017-11-30T20:37:31.564Z,28.90
2017-11-30T20:39:57.801Z,29.17
2017-11-30T20:42:24.197Z,29.53
2017-11-30T20:44:51.209Z,32.40
2017-11-30T20:47:17.459Z,28.93
2017-11-30T20:49:44.442Z,29.13
2017-11-30T20:52:10.710Z,27.20
2017-11-30T20:54:36.947Z,28.37
2017-11-30T20:57:03.230Z,28.00
2017-11-30T20:59:29.481Z,30.77
2017-11-30T21:01:55.729Z,32.83
2017-11-30T21:04:21.995Z,27.83
2017-11-30T21:06:48.980Z,28.77
2017-11-30T21:09:15.230Z,32.17
2017-11-30T21:11:41.510Z,33.73
2017-11-30T21:14:08.522Z,28.47
2017-11-30T21:16:34.796Z,25.93
2017-11-30T21:19:01.048Z,27.23
2017-11-30T21:21:27.295Z,30.10
2017-11-30T21:23:53.555Z,28.90
2017-11-30T21:26:19.790Z,29.00
2017-11-30T21:28:46.791Z,27.53
2017-11-30T21:31:13.034Z,30.80
2017-11-30T21:33:39.322Z,27.00
2017-11-30T21:36:05.570Z,27.97
2017-11-30T21:38:31.840Z,29.03
2017-11-30T21:41:07.210Z,25.70
2017-11-30T21:43:33.476Z,37.30
2017-11-30T21:45:59.728Z,27.80
2017-11-30T21:48:25.981Z,29.87
2017-11-30T21:50:53.033Z,27.90
2017-11-30T21:53:20.012Z,32.30
2017-11-30T21:55:46.306Z,30.30
2017-11-30T21:58:13.379Z,29.13
2017-11-30T22:00:39.669Z,28.00
2017-11-30T22:03:05.898Z,30.00
2017-11-30T22:05:32.190Z,29.10
2017-11-30T22:07:58.466Z,30.40
2017-11-30T22:10:25.507Z,28.40
2017-11-30T22:12:51.775Z,29.57
2017-11-30T22:15:18.099Z,30.77
2017-11-30T22:17:44.395Z,30.33
2017-11-30T22:20:10.670Z,30.57
2017-11-30T22:22:36.915Z,33.30
2017-11-30T22:25:03.208Z,28.97
2017-11-30T22:27:29.474Z,26.93
2017-11-30T22:29:56.459Z,26.57
2017-11-30T22:32:22.833Z,26.53
2017-11-30T22:34:49.110Z,27.73
2017-11-30T22:37:15.821Z,28.23
2017-11-30T22:39:42.108Z,31.03
2017-11-30T22:42:09.142Z,29.00
2017-11-30T22:44:36.152Z,27.73
2017-11-30T22:47:03.206Z,37.93
2017-11-30T22:49:29.455Z,37.07
2017-11-30T22:51:55.740Z,34.33
2017-11-30T22:54:22.038Z,35.97
2017-11-30T22:56:48.320Z,30.00
2017-11-30T22:59:14.565Z,33.20
2017-11-30T23:01:40.846Z,32.57
2017-11-30T23:04:07.098Z,33.43
2017-11-30T23:06:33.357Z,27.67
2017-11-30T23:08:59.604Z,27.83
2017-11-30T23:11:25.856Z,23.93
2017-11-30T23:13:52.138Z,27.73
2017-11-30T23:16:18.415Z,25.50
2017-11-30T23:18:44.675Z,27.40
2017-11-30T23:21:10.947Z,26.70
2017-11-30T23:23:37.955Z,29.90
2017-11-30T23:26:04.241Z,41.43
2017-11-30T23:28:30.525Z,27.57
2017-11-30T23:30:56.800Z,26.37
2017-11-30T23:33:23.076Z,26.10
2017-11-30T23:35:49.337Z,29.20
2017-11-30T23:38:16.361Z,29.33
2017-11-30T23:40:42.629Z,25.23
2017-11-30T23:43:08.882Z,25.17
2017-11-30T23:45:35.157Z,27.60
2017-11-30T23:48:01.415Z,30.00
2017-11-30T23:50:28.411Z,34.57
2017-11-30T23:52:54.660Z,32.17
2017-11-30T23:55:20.945Z,27.40
2017-11-30T23:57:47.210Z,28.73
